^^

..:: Storico WU ::..




Lo storico viene creato da WUnderground con i dati che la stazione Meteomincio invia al loro server. L' aggiornamento viene fatto ogni 5 minuti circa, tuttavia possono esserci intervalli pił ampi a causa di errori, interruzioni di servizio o problemi nell' invio tramite FTP.


Storico stazione MeteoMincio
Giorno Sommario per Marzo 18, 2022 Unità:  Inglese    Metrico   Entrambi
Giorno Settimana Mese Anno
  Max: Min: Media:
Temperatura: 59 °F 44.6 °F 51.1 °F
Dew Point: 42.8 °F 33.8 °F 38.7 °F
Umidità: 89% 48% 64%
Velocità vento: 23mph 0mph 7.6mph
Raffica: 32.3mph - -
Direzione- - East
Pressione: 30.6 in 30.4 in -
Precipitazioni: 0 in    
 
 
Tabulato Dati per Marzo 18, 2022
Ora Temperatura Dew Point Pressione Direzione Velocità vento Raffica Umidità Intensità pioggia (oraria) Info solare Situazione
00:04 46.4 °F 42.8 °F 30.4 in North 1.2 mph 3.1 mph 84% 0 in 0.00 W/m2 unknown
00:09 46.4 °F 41 °F 30.4 in North 1.2 mph 2.5 mph 84% 0 in 0.00 W/m2 unknown
00:14 46.4 °F 41 °F 30.4 in NNE 1.2 mph 2.5 mph 85% 0 in 0.00 W/m2 unknown
00:19 46.4 °F 41 °F 30.4 in NNE 1.2 mph 1.9 mph 85% 0 in 0.00 W/m2 unknown
00:24 46.4 °F 41 °F 30.4 in NNE 1.9 mph 3.7 mph 85% 0 in 0.00 W/m2 unknown
00:29 46.4 °F 41 °F 30.4 in NE 1.9 mph 3.7 mph 85% 0 in 0.00 W/m2 unknown
00:34 46.4 °F 42.8 °F 30.4 in NE 1.9 mph 3.7 mph 86% 0 in 0.00 W/m2 unknown
00:39 46.4 °F 42.8 °F 30.4 in NE 1.2 mph 3.1 mph 86% 0 in 0.00 W/m2 unknown
00:44 46.4 °F 41 °F 30.4 in NE 1.2 mph 2.5 mph 86% 0 in 0.00 W/m2 unknown
00:49 46.4 °F 42.8 °F 30.4 in NE 1.2 mph 2.5 mph 87% 0 in 0.00 W/m2 unknown
00:54 46.4 °F 42.8 °F 30.4 in NE 1.9 mph 3.1 mph 87% 0 in 0.00 W/m2 unknown
00:59 46.4 °F 42.8 °F 30.4 in ENE 1.9 mph 3.7 mph 88% 0 in 0.00 W/m2 unknown
01:04 44.6 °F 42.8 °F 30.4 in ENE 1.9 mph 3.7 mph 88% 0 in 0.00 W/m2 unknown
01:09 44.6 °F 41 °F 30.4 in ENE 2.5 mph 3.7 mph 88% 0 in 0.00 W/m2 unknown
01:14 44.6 °F 42.8 °F 30.4 in ENE 1.9 mph 3.7 mph 89% 0 in 0.00 W/m2 unknown
01:19 44.6 °F 41 °F 30.4 in ENE 1.2 mph 3.1 mph 88% 0 in 0.00 W/m2 unknown
01:24 44.6 °F 41 °F 30.4 in ENE 1.2 mph 1.9 mph 88% 0 in 0.00 W/m2 unknown
01:29 44.6 °F 41 °F 30.4 in Calm   1.2 mph 88% 0 in 0.00 W/m2 unknown
01:34 44.6 °F 41 °F 30.4 in ENE 1.2 mph 3.1 mph 88% 0 in 0.00 W/m2 unknown
01:39 44.6 °F 41 °F 30.4 in ENE 1.2 mph 3.7 mph 88% 0 in 0.00 W/m2 unknown
01:44 44.6 °F 41 °F 30.4 in Calm   3.1 mph 88% 0 in 0.00 W/m2 unknown
01:49 44.6 °F 41 °F 30.4 in Calm     88% 0 in 0.00 W/m2 unknown
01:54 44.6 °F 41 °F 30.4 in ENE 1.2 mph 2.5 mph 88% 0 in 0.00 W/m2 unknown
01:59 44.6 °F 41 °F 30.4 in ENE 1.2 mph 1.9 mph 88% 0 in 0.00 W/m2 unknown
02:04 44.6 °F 41 °F 30.4 in ENE 1.2 mph 1.2 mph 88% 0 in 0.00 W/m2 unknown
02:09 44.6 °F 41 °F 30.4 in ENE 1.9 mph 3.1 mph 88% 0 in 0.00 W/m2 unknown
02:14 44.6 °F 41 °F 30.4 in East 3.1 mph 5 mph 88% 0 in 0.00 W/m2 unknown
02:19 44.6 °F 41 °F 30.4 in East 3.7 mph 5 mph 88% 0 in 0.00 W/m2 unknown
02:24 46.4 °F 41 °F 30.4 in ENE 3.7 mph 5 mph 87% 0 in 0.00 W/m2 unknown
02:29 46.4 °F 41 °F 30.4 in ENE 5 mph 6.8 mph 84% 0 in 0.00 W/m2 unknown
02:34 46.4 °F 41 °F 30.4 in East 5 mph 6.8 mph 82% 0 in 0.00 W/m2 unknown
02:39 46.4 °F 41 °F 30.4 in East 4.3 mph 6.8 mph 80% 0 in 0.00 W/m2 unknown
02:44 46.4 °F 41 °F 30.4 in ENE 4.3 mph 6.2 mph 80% 0 in 0.00 W/m2 unknown
02:49 46.4 °F 41 °F 30.4 in ENE 5 mph 6.8 mph 79% 0 in 0.00 W/m2 unknown
02:54 46.4 °F 41 °F 30.4 in ENE 4.3 mph 6.8 mph 78% 0 in 0.00 W/m2 unknown
02:59 46.4 °F 41 °F 30.4 in East 4.3 mph 6.8 mph 79% 0 in 0.00 W/m2 unknown
03:04 46.4 °F 41 °F 30.4 in ENE 4.3 mph 6.8 mph 79% 0 in 0.00 W/m2 unknown
03:09 46.4 °F 41 °F 30.4 in East 5 mph 6.8 mph 79% 0 in 0.00 W/m2 unknown
03:14 46.4 °F 39.2 °F 30.4 in East 3.1 mph 6.8 mph 79% 0 in 0.00 W/m2 unknown
03:19 46.4 °F 39.2 °F 30.4 in East 3.7 mph 6.2 mph 79% 0 in 0.00 W/m2 unknown
03:24 46.4 °F 39.2 °F 30.4 in East 4.3 mph 6.2 mph 78% 0 in 0.00 W/m2 unknown
03:29 46.4 °F 39.2 °F 30.4 in East 5 mph 6.8 mph 78% 0 in 0.00 W/m2 unknown
03:34 46.4 °F 39.2 °F 30.4 in East 5 mph 6.8 mph 78% 0 in 0.00 W/m2 unknown
03:39 46.4 °F 39.2 °F 30.4 in ESE 5 mph 6.8 mph 78% 0 in 0.00 W/m2 unknown
03:44 46.4 °F 39.2 °F 30.4 in East 5 mph 8.1 mph 78% 0 in 0.00 W/m2 unknown
03:49 46.4 °F 39.2 °F 30.4 in East 5 mph 6.8 mph 78% 0 in 0.00 W/m2 unknown
03:54 46.4 °F 39.2 °F 30.4 in East 5 mph 6.8 mph 78% 0 in 0.00 W/m2 unknown
03:59 46.4 °F 39.2 °F 30.4 in East 5.6 mph 8.1 mph 77% 0 in 0.00 W/m2 unknown
04:04 46.4 °F 39.2 °F 30.4 in ESE 6.2 mph 8.1 mph 77% 0 in 0.00 W/m2 unknown
04:09 46.4 °F 39.2 °F 30.4 in East 5.6 mph 8.1 mph 76% 0 in 0.00 W/m2 unknown
04:14 46.4 °F 39.2 °F 30.4 in East 5 mph 8.1 mph 76% 0 in 0.00 W/m2 unknown
04:19 48.2 °F 39.2 °F 30.4 in East 5 mph 8.1 mph 75% 0 in 0.00 W/m2 unknown
04:24 48.2 °F 39.2 °F 30.4 in East 5 mph 6.8 mph 75% 0 in 0.00 W/m2 unknown
04:29 48.2 °F 39.2 °F 30.4 in East 5.6 mph 6.8 mph 74% 0 in 0.00 W/m2 unknown
04:34 48.2 °F 39.2 °F 30.4 in East 5 mph 6.8 mph 74% 0 in 0.00 W/m2 unknown
04:39 48.2 °F 39.2 °F 30.4 in East 5 mph 6.8 mph 74% 0 in 0.00 W/m2 unknown
04:44 48.2 °F 39.2 °F 30.4 in East 5 mph 6.8 mph 74% 0 in 0.00 W/m2 unknown
04:49 48.2 °F 39.2 °F 30.4 in East 5 mph 6.8 mph 74% 0 in 0.00 W/m2 unknown
04:54 48.2 °F 39.2 °F 30.4 in East 5 mph 6.8 mph 74% 0 in 0.00 W/m2 unknown
04:59 48.2 °F 39.2 °F 30.4 in ENE 5 mph 6.8 mph 73% 0 in 0.00 W/m2 unknown
05:04 48.2 °F 39.2 °F 30.4 in ENE 3.7 mph 6.2 mph 73% 0 in 0.00 W/m2 unknown
05:09 48.2 °F 39.2 °F 30.4 in NE 4.3 mph 6.8 mph 72% 0 in 0.00 W/m2 unknown
05:14 48.2 °F 39.2 °F 30.4 in NE 4.3 mph 6.8 mph 72% 0 in 0.00 W/m2 unknown
05:19 48.2 °F 39.2 °F 30.4 in NE 5.6 mph 8.1 mph 72% 0 in 0.00 W/m2 unknown
05:24 48.2 °F 39.2 °F 30.4 in ENE 7.5 mph 10.6 mph 71% 0 in 0.00 W/m2 unknown
05:29 48.2 °F 39.2 °F 30.4 in ENE 5.6 mph 9.9 mph 70% 0 in 0.00 W/m2 unknown
05:34 50 °F 39.2 °F 30.4 in East 6.2 mph 8.1 mph 70% 0 in 0.00 W/m2 unknown
05:39 50 °F 39.2 °F 30.4 in East 3.7 mph 6.8 mph 70% 0 in 0.00 W/m2 unknown
05:44 48.2 °F 39.2 °F 30.4 in East 3.1 mph 5 mph 71% 0 in 0.00 W/m2 unknown
05:49 48.2 °F 39.2 °F 30.4 in East 3.7 mph 5 mph 71% 0 in 0.00 W/m2 unknown
05:54 48.2 °F 39.2 °F 30.4 in East 5 mph 6.2 mph 71% 0 in 0.00 W/m2 unknown
05:59 48.2 °F 39.2 °F 30.4 in East 5 mph 6.2 mph 70% 0 in 0.00 W/m2 unknown
06:04 48.2 °F 39.2 °F 30.4 in East 5.6 mph 8.7 mph 70% 0 in 0.00 W/m2 unknown
06:09 48.2 °F 39.2 °F 30.4 in East 6.2 mph 9.3 mph 69% 0 in 0.00 W/m2 unknown
06:14 48.2 °F 39.2 °F 30.4 in ENE 6.2 mph 8.7 mph 68% 0 in 0.00 W/m2 unknown
06:19 48.2 °F 39.2 °F 30.4 in ENE 5.6 mph 8.1 mph 68% 0 in 0.00 W/m2 unknown
06:24 48.2 °F 39.2 °F 30.4 in East 5.6 mph 8.1 mph 68% 0 in 0.00 W/m2 unknown
06:29 48.2 °F 39.2 °F 30.4 in East 6.2 mph 8.7 mph 68% 0 in 0.00 W/m2 unknown
06:34 48.2 °F 39.2 °F 30.4 in East 6.8 mph 9.3 mph 68% 0 in 5.00 W/m2 unknown
06:39 48.2 °F 39.2 °F 30.4 in ENE 6.2 mph 8.7 mph 69% 0 in 9.00 W/m2 unknown
06:44 48.2 °F 39.2 °F 30.4 in ENE 5.6 mph 8.1 mph 69% 0 in 12.00 W/m2 unknown
06:49 48.2 °F 39.2 °F 30.4 in East 5.6 mph 8.1 mph 69% 0 in 16.00 W/m2 unknown
06:54 48.2 °F 39.2 °F 30.4 in East 5.6 mph 8.1 mph 69% 0 in 19.00 W/m2 unknown
06:59 48.2 °F 39.2 °F 30.4 in ENE 6.2 mph 8.7 mph 69% 0 in 26.00 W/m2 unknown
07:04 48.2 °F 39.2 °F 30.4 in ENE 6.2 mph 9.3 mph 69% 0 in 32.00 W/m2 unknown
07:09 48.2 °F 39.2 °F 30.4 in ENE 6.2 mph 8.7 mph 69% 0 in 37.00 W/m2 unknown
07:14 48.2 °F 39.2 °F 30.4 in East 6.2 mph 9.3 mph 69% 0 in 44.00 W/m2 unknown
07:19 48.2 °F 39.2 °F 30.4 in East 6.2 mph 8.7 mph 69% 0 in 53.00 W/m2 unknown
07:24 48.2 °F 39.2 °F 30.4 in East 6.8 mph 9.3 mph 68% 0 in 60.00 W/m2 unknown
07:29 48.2 °F 39.2 °F 30.4 in East 8.1 mph 10.6 mph 68% 0 in 65.00 W/m2 unknown
07:34 50 °F 39.2 °F 30.4 in ENE 6.8 mph 9.9 mph 67% 0 in 74.00 W/m2 unknown
07:39 50 °F 39.2 °F 30.4 in ENE 6.2 mph 9.3 mph 67% 0 in 81.00 W/m2 unknown
07:44 50 °F 39.2 °F 30.4 in ENE 6.8 mph 11.2 mph 67% 0 in 86.00 W/m2 unknown
07:49 50 °F 39.2 °F 30.5 in ENE 8.7 mph 14.3 mph 67% 0 in 93.00 W/m2 unknown
07:54 50 °F 39.2 °F 30.5 in East 8.1 mph 14.3 mph 66% 0 in 100.00 W/m2 unknown
07:59 50 °F 39.2 °F 30.5 in East 9.3 mph 11.8 mph 66% 0 in 111.00 W/m2 unknown
08:04 51.8 °F 39.2 °F 30.5 in East 8.7 mph 11.8 mph 65% 0 in 121.00 W/m2 unknown
08:09 51.8 °F 39.2 °F 30.5 in East 8.7 mph 14.3 mph 64% 0 in 127.00 W/m2 unknown
08:14 51.8 °F 39.2 °F 30.5 in East 11.2 mph 14.3 mph 64% 0 in 130.00 W/m2 unknown
08:19 51.8 °F 39.2 °F 30.5 in East 11.2 mph 14.9 mph 63% 0 in 132.00 W/m2 unknown
08:24 51.8 °F 39.2 °F 30.5 in East 9.9 mph 14.9 mph 62% 0 in 135.00 W/m2 unknown
08:29 51.8 °F 39.2 °F 30.5 in East 8.1 mph 13 mph 63% 0 in 137.00 W/m2 unknown
08:34 51.8 °F 39.2 °F 30.5 in East 9.3 mph 14.3 mph 63% 0 in 141.00 W/m2 unknown
08:39 51.8 °F 39.2 °F 30.5 in East 9.3 mph 14.3 mph 63% 0 in 148.00 W/m2 unknown
08:44 51.8 °F 39.2 °F 30.5 in East 8.1 mph 11.8 mph 63% 0 in 149.00 W/m2 unknown
08:49 51.8 °F 39.2 °F 30.5 in East 8.7 mph 13 mph 63% 0 in 153.00 W/m2 unknown
08:54 51.8 °F 41 °F 30.5 in East 8.7 mph 13 mph 63% 0 in 151.00 W/m2 unknown
08:59 53.6 °F 41 °F 30.5 in East 9.3 mph 13 mph 63% 0 in 155.00 W/m2 unknown
09:04 53.6 °F 39.2 °F 30.5 in East 9.3 mph 13 mph 61% 0 in 160.00 W/m2 unknown
09:09 53.6 °F 39.2 °F 30.5 in East 9.9 mph 13 mph 59% 0 in 169.00 W/m2 unknown
09:14 53.6 °F 39.2 °F 30.5 in East 10.6 mph 14.9 mph 58% 0 in 181.00 W/m2 unknown
09:19 53.6 °F 39.2 °F 30.5 in East 9.9 mph 14.9 mph 57% 0 in 206.00 W/m2 unknown
09:24 53.6 °F 39.2 °F 30.5 in ENE 9.9 mph 14.3 mph 57% 0 in 225.00 W/m2 unknown
09:29 53.6 °F 39.2 °F 30.5 in East 13 mph 16.2 mph 57% 0 in 246.00 W/m2 unknown
09:34 53.6 °F 39.2 °F 30.5 in ENE 11.8 mph 17.4 mph 56% 0 in 258.00 W/m2 unknown
09:39 55.4 °F 39.2 °F 30.5 in East 10.6 mph 16.8 mph 56% 0 in 272.00 W/m2 unknown
09:44 55.4 °F 39.2 °F 30.5 in ENE 11.8 mph 16.2 mph 56% 0 in 278.00 W/m2 unknown
09:49 55.4 °F 39.2 °F 30.5 in East 13 mph 16.8 mph 55% 0 in 281.00 W/m2 unknown
09:54 55.4 °F 39.2 °F 30.5 in East 11.2 mph 16.8 mph 55% 0 in 294.00 W/m2 unknown
09:59 55.4 °F 39.2 °F 30.5 in East 13 mph 16.2 mph 55% 0 in 306.00 W/m2 unknown
10:04 55.4 °F 39.2 °F 30.5 in East 12.4 mph 14.9 mph 55% 0 in 323.00 W/m2 unknown
10:09 55.4 °F 39.2 °F 30.5 in East 12.4 mph 16.2 mph 55% 0 in 322.00 W/m2 unknown
10:14 55.4 °F 39.2 °F 30.5 in East 13.7 mph 18.6 mph 55% 0 in 315.00 W/m2 unknown
10:19 55.4 °F 39.2 °F 30.5 in East 13.7 mph 18 mph 53% 0 in 311.00 W/m2 unknown
10:24 55.4 °F 39.2 °F 30.5 in ENE 18 mph 24.2 mph 53% 0 in 325.00 W/m2 unknown
10:29 55.4 °F 37.4 °F 30.5 in East 16.2 mph 24.2 mph 51% 0 in 325.00 W/m2 unknown
10:34 55.4 °F 37.4 °F 30.5 in East 20.5 mph 26.1 mph 51% 0 in 323.00 W/m2 unknown
10:39 55.4 °F 37.4 °F 30.5 in East 20.5 mph 32.3 mph 48% 0 in 346.00 W/m2 unknown
10:44 55.4 °F 37.4 °F 30.5 in East 20.5 mph 31.7 mph 49% 0 in 353.00 W/m2 unknown
10:49 57.2 °F 37.4 °F 30.5 in East 18.6 mph 29.8 mph 49% 0 in 388.00 W/m2 unknown
10:54 57.2 °F 37.4 °F 30.5 in East 19.3 mph 29.8 mph 48% 0 in 436.00 W/m2 unknown
10:59 57.2 °F 37.4 °F 30.5 in East 19.9 mph 28 mph 48% 0 in 443.00 W/m2 unknown
11:04 57.2 °F 37.4 °F 30.5 in East 18 mph 28 mph 49% 0 in 411.00 W/m2 unknown
11:09 57.2 °F 37.4 °F 30.5 in East 16.8 mph 24.9 mph 49% 0 in 383.00 W/m2 unknown
11:14 57.2 °F 37.4 °F 30.5 in East 17.4 mph 25.5 mph 50% 0 in 336.00 W/m2 unknown
11:19 57.2 °F 37.4 °F 30.5 in East 14.9 mph 24.9 mph 50% 0 in 313.00 W/m2 unknown
11:24 57.2 °F 37.4 °F 30.5 in East 18 mph 23 mph 50% 0 in 302.00 W/m2 unknown
11:29 57.2 °F 37.4 °F 30.5 in East 16.2 mph 24.2 mph 50% 0 in 311.00 W/m2 unknown
11:34 57.2 °F 37.4 °F 30.5 in East 15.5 mph 24.2 mph 50% 0 in 316.00 W/m2 unknown
11:39 57.2 °F 37.4 °F 30.5 in East 17.4 mph 24.2 mph 49% 0 in 318.00 W/m2 unknown
11:44 57.2 °F 37.4 °F 30.5 in East 16.8 mph 23 mph 48% 0 in 322.00 W/m2 unknown
11:49 57.2 °F 37.4 °F 30.5 in East 17.4 mph 23 mph 48% 0 in 313.00 W/m2 unknown
11:54 57.2 °F 37.4 °F 30.5 in East 18.6 mph 24.9 mph 49% 0 in 308.00 W/m2 unknown
11:59 57.2 °F 37.4 °F 30.5 in East 14.9 mph 24.2 mph 49% 0 in 301.00 W/m2 unknown
12:04 57.2 °F 37.4 °F 30.5 in East 15.5 mph 23 mph 50% 0 in 301.00 W/m2 unknown
12:09 57.2 °F 37.4 °F 30.5 in East 16.2 mph 23 mph 50% 0 in 295.00 W/m2 unknown
12:14 55.4 °F 37.4 °F 30.5 in East 15.5 mph 23 mph 50% 0 in 290.00 W/m2 unknown
12:19 57.2 °F 39.2 °F 30.5 in East 15.5 mph 23 mph 51% 0 in 283.00 W/m2 unknown
12:24 55.4 °F 37.4 °F 30.5 in East 23 mph 26.7 mph 51% 0 in 290.00 W/m2 unknown
12:29 55.4 °F 37.4 °F 30.5 in East 17.4 mph 26.7 mph 50% 0 in 304.00 W/m2 unknown
12:34 55.4 °F 37.4 °F 30.5 in East 16.2 mph 26.1 mph 51% 0 in 332.00 W/m2 unknown
12:39 55.4 °F 37.4 °F 30.5 in ENE 16.8 mph 23 mph 51% 0 in 341.00 W/m2 unknown
12:44 55.4 °F 39.2 °F 30.5 in East 14.9 mph 21.7 mph 53% 0 in 334.00 W/m2 unknown
12:49 55.4 °F 39.2 °F 30.5 in ENE 13.7 mph 19.9 mph 53% 0 in 325.00 W/m2 unknown
12:54 55.4 °F 39.2 °F 30.5 in ENE 15.5 mph 19.9 mph 53% 0 in 330.00 W/m2 unknown
12:59 55.4 °F 39.2 °F 30.5 in ENE 15.5 mph 23 mph 53% 0 in 359.00 W/m2 unknown
13:04 57.2 °F 39.2 °F 30.5 in ENE 14.9 mph 23 mph 54% 0 in 410.00 W/m2 unknown
13:09 57.2 °F 39.2 °F 30.5 in ENE 16.8 mph 26.7 mph 54% 0 in 424.00 W/m2 unknown
13:14 57.2 °F 39.2 °F 30.5 in East 16.2 mph 26.1 mph 52% 0 in 383.00 W/m2 unknown
13:19 57.2 °F 39.2 °F 30.5 in East 15.5 mph 24.2 mph 52% 0 in 383.00 W/m2 unknown
13:24 57.2 °F 39.2 °F 30.5 in East 13.7 mph 24.2 mph 52% 0 in 362.00 W/m2 unknown
13:29 57.2 °F 39.2 °F 30.5 in ENE 13 mph 18 mph 53% 0 in 323.00 W/m2 unknown
13:34 57.2 °F 39.2 °F 30.5 in East 11.8 mph 19.3 mph 53% 0 in 290.00 W/m2 unknown
13:39 57.2 °F 39.2 °F 30.5 in East 15.5 mph 19.9 mph 53% 0 in 274.00 W/m2 unknown
13:44 57.2 °F 39.2 °F 30.5 in East 13 mph 19.9 mph 53% 0 in 288.00 W/m2 unknown
13:49 57.2 °F 39.2 °F 30.5 in East 13.7 mph 19.9 mph 53% 0 in 329.00 W/m2 unknown
13:54 57.2 °F 41 °F 30.5 in East 13.7 mph 19.9 mph 54% 0 in 383.00 W/m2 unknown
13:59 57.2 °F 41 °F 30.5 in East 11.2 mph 18 mph 53% 0 in 413.00 W/m2 unknown
14:04 57.2 °F 41 °F 30.5 in East 13.7 mph 18.6 mph 54% 0 in 425.00 W/m2 unknown
14:09 57.2 °F 41 °F 30.5 in East 14.9 mph 21.1 mph 54% 0 in 425.00 W/m2 unknown
14:14 57.2 °F 41 °F 30.5 in East 14.3 mph 21.1 mph 54% 0 in 388.00 W/m2 unknown
14:19 57.2 °F 41 °F 30.5 in ENE 13 mph 19.9 mph 54% 0 in 355.00 W/m2 unknown
14:24 57.2 °F 41 °F 30.5 in ENE 13.7 mph 18.6 mph 53% 0 in 323.00 W/m2 unknown
14:29 57.2 °F 41 °F 30.5 in East 12.4 mph 16.2 mph 53% 0 in 295.00 W/m2 unknown
14:34 57.2 °F 39.2 °F 30.5 in East 13.7 mph 19.9 mph 52% 0 in 281.00 W/m2 unknown
14:39 57.2 °F 39.2 °F 30.5 in East 14.9 mph 19.9 mph 52% 0 in 271.00 W/m2 unknown
14:44 57.2 °F 39.2 °F 30.5 in East 9.9 mph 19.9 mph 52% 0 in 274.00 W/m2 unknown
14:49 57.2 °F 39.2 °F 30.5 in East 12.4 mph 18 mph 52% 0 in 274.00 W/m2 unknown
14:54 57.2 °F 39.2 °F 30.5 in East 13 mph 16.2 mph 50% 0 in 274.00 W/m2 unknown
14:59 57.2 °F 39.2 °F 30.5 in East 9.3 mph 16.2 mph 50% 0 in 313.00 W/m2 unknown
15:04 59 °F 39.2 °F 30.5 in East 9.3 mph 14.3 mph 51% 0 in 323.00 W/m2 unknown
15:09 59 °F 39.2 °F 30.5 in East 9.9 mph 13 mph 51% 0 in 316.00 W/m2 unknown
15:14 57.2 °F 39.2 °F 30.5 in East 10.6 mph 14.9 mph 50% 0 in 316.00 W/m2 unknown
15:19 57.2 °F 39.2 °F 30.5 in ENE 13 mph 16.2 mph 50% 0 in 360.00 W/m2 unknown
15:24 59 °F 39.2 °F 30.5 in ENE 13 mph 21.7 mph 49% 0 in 360.00 W/m2 unknown
15:29 59 °F 39.2 °F 30.5 in East 13 mph 21.7 mph 49% 0 in 348.00 W/m2 unknown
15:34 59 °F 39.2 °F 30.5 in East 13 mph 19.9 mph 49% 0 in 330.00 W/m2 unknown
15:39 57.2 °F 39.2 °F 30.5 in ENE 12.4 mph 16.2 mph 49% 0 in 309.00 W/m2 unknown
15:44 57.2 °F 39.2 °F 30.5 in ENE 13.7 mph 18.6 mph 50% 0 in 295.00 W/m2 unknown
15:49 57.2 °F 39.2 °F 30.5 in ENE 13 mph 18.6 mph 50% 0 in 274.00 W/m2 unknown
15:54 57.2 °F 39.2 °F 30.5 in ENE 13 mph 18 mph 50% 0 in 262.00 W/m2 unknown
15:59 57.2 °F 39.2 °F 30.5 in ENE 14.9 mph 18 mph 51% 0 in 255.00 W/m2 unknown
16:04 57.2 °F 39.2 °F 30.5 in East 14.9 mph 18.6 mph 50% 0 in 241.00 W/m2 unknown
16:09 57.2 °F 39.2 °F 30.5 in ENE 12.4 mph 19.9 mph 50% 0 in 213.00 W/m2 unknown
16:14 57.2 °F 37.4 °F 30.5 in ENE 13 mph 19.9 mph 49% 0 in 197.00 W/m2 unknown
16:19 57.2 °F 37.4 °F 30.5 in East 9.9 mph 19.9 mph 49% 0 in 186.00 W/m2 unknown
16:24 57.2 °F 37.4 °F 30.5 in East 11.8 mph 16.2 mph 49% 0 in 171.00 W/m2 unknown
16:29 57.2 °F 37.4 °F 30.5 in East 9.9 mph 16.2 mph 49% 0 in 155.00 W/m2 unknown
16:34 57.2 °F 37.4 °F 30.5 in ESE 9.9 mph 14.9 mph 49% 0 in 135.00 W/m2 unknown
16:39 57.2 °F 37.4 °F 30.5 in East 9.9 mph 14.9 mph 49% 0 in 120.00 W/m2 unknown
16:44 57.2 °F 37.4 °F 30.5 in East 8.7 mph 14.9 mph 49% 0 in 109.00 W/m2 unknown
16:49 57.2 °F 37.4 °F 30.5 in East 8.7 mph 13 mph 48% 0 in 100.00 W/m2 unknown
16:54 55.4 °F 37.4 °F 30.5 in East 11.8 mph 14.9 mph 48% 0 in 93.00 W/m2 unknown
16:59 55.4 °F 37.4 °F 30.5 in East 9.9 mph 14.9 mph 48% 0 in 84.00 W/m2 unknown
17:04 55.4 °F 37.4 °F 30.5 in ESE 8.1 mph 13 mph 49% 0 in 76.00 W/m2 unknown
17:09 55.4 °F 37.4 °F 30.5 in ESE 6.8 mph 13 mph 50% 0 in 67.00 W/m2 unknown
17:14 55.4 °F 37.4 °F 30.5 in SE 5.6 mph 8.1 mph 50% 0 in 60.00 W/m2 unknown
17:19 55.4 °F 37.4 °F 30.5 in ESE 6.2 mph 8.1 mph 50% 0 in 53.00 W/m2 unknown
17:24 55.4 °F 37.4 °F 30.5 in ESE 5.6 mph 9.3 mph 50% 0 in 47.00 W/m2 unknown
17:29 55.4 °F 37.4 °F 30.5 in ESE 6.2 mph 9.3 mph 49% 0 in 44.00 W/m2 unknown
17:34 55.4 °F 37.4 °F 30.5 in ESE 5.6 mph 8.7 mph 49% 0 in 39.00 W/m2 unknown
17:39 55.4 °F 37.4 °F 30.5 in ESE 5 mph 6.8 mph 50% 0 in 35.00 W/m2 unknown
17:44 55.4 °F 37.4 °F 30.5 in ESE 5.6 mph 8.1 mph 51% 0 in 30.00 W/m2 unknown
17:49 55.4 °F 37.4 °F 30.5 in ESE 3.1 mph 8.1 mph 51% 0 in 26.00 W/m2 unknown
17:54 55.4 °F 37.4 °F 30.5 in SE 4.3 mph 6.8 mph 51% 0 in 23.00 W/m2 unknown
17:59 55.4 °F 37.4 °F 30.5 in ESE 5 mph 6.8 mph 51% 0 in 19.00 W/m2 unknown
18:04 53.6 °F 37.4 °F 30.5 in ESE 3.1 mph 6.8 mph 52% 0 in 16.00 W/m2 unknown
18:09 53.6 °F 37.4 °F 30.5 in ESE 3.7 mph 5 mph 52% 0 in 12.00 W/m2 unknown
18:14 53.6 °F 37.4 °F 30.5 in ESE 3.1 mph 5 mph 53% 0 in 9.00 W/m2 unknown
18:19 53.6 °F 37.4 °F 30.5 in SE 1.9 mph 3.7 mph 53% 0 in 7.00 W/m2 unknown
18:24 53.6 °F 37.4 °F 30.5 in ESE 1.9 mph 3.7 mph 54% 0 in 0.00 W/m2 unknown
18:29 53.6 °F 37.4 °F 30.5 in SE 1.9 mph 3.7 mph 54% 0 in 0.00 W/m2 unknown
18:34 53.6 °F 37.4 °F 30.5 in SE 1.2 mph 3.1 mph 55% 0 in 0.00 W/m2 unknown
18:39 53.6 °F 37.4 °F 30.5 in SE 1.2 mph 2.5 mph 55% 0 in 0.00 W/m2 unknown
18:44 51.8 °F 37.4 °F 30.5 in ESE 1.2 mph 2.5 mph 56% 0 in 0.00 W/m2 unknown
18:49 51.8 °F 37.4 °F 30.5 in ESE 1.2 mph 1.9 mph 57% 0 in 0.00 W/m2 unknown
18:54 51.8 °F 37.4 °F 30.5 in ESE 0.6 mph 1.2 mph 59% 0 in 0.00 W/m2 unknown
18:59 51.8 °F 37.4 °F 30.5 in ESE 1.2 mph 2.5 mph 60% 0 in 0.00 W/m2 unknown
19:04 51.8 °F 37.4 °F 30.5 in East 1.9 mph 2.5 mph 60% 0 in 0.00 W/m2 unknown
19:09 50 °F 37.4 °F 30.5 in ENE 1.9 mph 2.5 mph 62% 0 in 0.00 W/m2 unknown
19:14 50 °F 37.4 °F 30.5 in ENE 1.9 mph 3.7 mph 62% 0 in 0.00 W/m2 unknown
19:19 50 °F 37.4 °F 30.5 in ENE 1.9 mph 3.1 mph 61% 0 in 0.00 W/m2 unknown
19:24 50 °F 37.4 °F 30.5 in ENE 1.9 mph 2.5 mph 62% 0 in 0.00 W/m2 unknown
19:29 50 °F 37.4 °F 30.5 in ENE 1.2 mph 2.5 mph 63% 0 in 0.00 W/m2 unknown
19:34 50 °F 37.4 °F 30.5 in ENE 1.9 mph 2.5 mph 64% 0 in 0.00 W/m2 unknown
19:39 50 °F 37.4 °F 30.5 in ENE 1.9 mph 2.5 mph 64% 0 in 0.00 W/m2 unknown
19:44 48.2 °F 37.4 °F 30.5 in ENE 1.2 mph 1.2 mph 65% 0 in 0.00 W/m2 unknown
19:49 48.2 °F 37.4 °F 30.6 in ENE 1.2 mph 1.2 mph 65% 0 in 0.00 W/m2 unknown
19:54 48.2 °F 37.4 °F 30.6 in ENE 1.2 mph 1.2 mph 66% 0 in 0.00 W/m2 unknown
19:59 48.2 °F 37.4 °F 30.6 in Calm   1.2 mph 66% 0 in 0.00 W/m2 unknown
20:04 48.2 °F 37.4 °F 30.6 in Calm   1.2 mph 67% 0 in 0.00 W/m2 unknown
20:09 48.2 °F 37.4 °F 30.6 in Calm     67% 0 in 0.00 W/m2 unknown
20:14 48.2 °F 37.4 °F 30.6 in Calm     67% 0 in 0.00 W/m2 unknown
20:19 48.2 °F 37.4 °F 30.6 in Calm     68% 0 in 0.00 W/m2 unknown
20:24 48.2 °F 37.4 °F 30.6 in Calm     68% 0 in 0.00 W/m2 unknown
20:29 48.2 °F 37.4 °F 30.6 in Calm     69% 0 in 0.00 W/m2 unknown
20:34 48.2 °F 37.4 °F 30.6 in Calm     69% 0 in 0.00 W/m2 unknown
20:39 46.4 °F 37.4 °F 30.6 in Calm     70% 0 in 0.00 W/m2 unknown
20:44 48.2 °F 37.4 °F 30.6 in NE 1.2 mph 1.9 mph 70% 0 in 0.00 W/m2 unknown
20:49 48.2 °F 37.4 °F 30.6 in NE 1.9 mph 2.5 mph 70% 0 in 0.00 W/m2 unknown
20:54 46.4 °F 37.4 °F 30.6 in NE 2.5 mph 3.7 mph 69% 0 in 0.00 W/m2 unknown
20:59 48.2 °F 37.4 °F 30.6 in NE 1.9 mph 3.7 mph 69% 0 in 0.00 W/m2 unknown
21:04 48.2 °F 37.4 °F 30.6 in NE 3.1 mph 3.7 mph 68% 0 in 0.00 W/m2 unknown
21:09 48.2 °F 37.4 °F 30.6 in NE 2.5 mph 3.7 mph 68% 0 in 0.00 W/m2 unknown
21:14 48.2 °F 37.4 °F 30.6 in NE 2.5 mph 3.7 mph 68% 0 in 0.00 W/m2 unknown
21:19 48.2 °F 37.4 °F 30.6 in NE 2.5 mph 3.7 mph 67% 0 in 0.00 W/m2 unknown
21:24 48.2 °F 37.4 °F 30.6 in ENE 2.5 mph 3.7 mph 68% 0 in 0.00 W/m2 unknown
21:29 46.4 °F 37.4 °F 30.6 in NE 2.5 mph 3.7 mph 68% 0 in 0.00 W/m2 unknown
21:34 46.4 °F 37.4 °F 30.6 in ENE 2.5 mph 3.7 mph 68% 0 in 0.00 W/m2 unknown
21:39 46.4 °F 37.4 °F 30.6 in ENE 4.3 mph 6.8 mph 69% 0 in 0.00 W/m2 unknown
21:44 48.2 °F 37.4 °F 30.6 in ENE 5 mph 6.8 mph 68% 0 in 0.00 W/m2 unknown
21:49 48.2 °F 37.4 °F 30.6 in ENE 6.8 mph 10.6 mph 67% 0 in 0.00 W/m2 unknown
21:54 48.2 °F 37.4 °F 30.6 in East 6.2 mph 9.9 mph 66% 0 in 0.00 W/m2 unknown
21:59 48.2 °F 37.4 °F 30.6 in East 6.8 mph 8.1 mph 64% 0 in 0.00 W/m2 unknown
22:04 48.2 °F 37.4 °F 30.6 in East 6.2 mph 8.1 mph 64% 0 in 0.00 W/m2 unknown
22:09 48.2 °F 37.4 °F 30.6 in East 5 mph 8.1 mph 64% 0 in 0.00 W/m2 unknown
22:14 48.2 °F 37.4 °F 30.6 in ENE 5.6 mph 6.8 mph 64% 0 in 0.00 W/m2 unknown
22:19 48.2 °F 37.4 °F 30.6 in ENE 6.2 mph 8.1 mph 65% 0 in 0.00 W/m2 unknown
22:24 48.2 °F 37.4 °F 30.6 in ENE 6.2 mph 8.1 mph 65% 0 in 0.00 W/m2 unknown
22:29 48.2 °F 37.4 °F 30.6 in ENE 5.6 mph 8.1 mph 65% 0 in 0.00 W/m2 unknown
22:34 48.2 °F 37.4 °F 30.6 in ENE 6.2 mph 9.3 mph 65% 0 in 0.00 W/m2 unknown
22:39 48.2 °F 35.6 °F 30.6 in East 6.2 mph 9.3 mph 65% 0 in 0.00 W/m2 unknown
22:44 48.2 °F 35.6 °F 30.6 in East 6.2 mph 8.7 mph 65% 0 in 0.00 W/m2 unknown
22:49 46.4 °F 35.6 °F 30.6 in ENE 8.1 mph 10.6 mph 65% 0 in 0.00 W/m2 unknown
22:54 46.4 °F 35.6 °F 30.6 in ENE 6.8 mph 11.2 mph 65% 0 in 0.00 W/m2 unknown
22:59 46.4 °F 35.6 °F 30.6 in ENE 7.5 mph 11.8 mph 65% 0 in 0.00 W/m2 unknown
23:04 46.4 °F 35.6 °F 30.6 in ENE 6.8 mph 11.8 mph 65% 0 in 0.00 W/m2 unknown
23:09 46.4 °F 35.6 °F 30.6 in ENE 6.8 mph 9.3 mph 66% 0 in 0.00 W/m2 unknown
23:14 46.4 °F 35.6 °F 30.6 in ENE 6.8 mph 8.7 mph 66% 0 in 0.00 W/m2 unknown
23:19 46.4 °F 35.6 °F 30.6 in ENE 5.6 mph 8.1 mph 66% 0 in 0.00 W/m2 unknown
23:24 46.4 °F 35.6 °F 30.6 in ENE 6.2 mph 8.1 mph 66% 0 in 0.00 W/m2 unknown
23:29 46.4 °F 35.6 °F 30.6 in ENE 6.2 mph 8.7 mph 66% 0 in 0.00 W/m2 unknown
23:34 44.6 °F 33.8 °F 30.6 in ENE 7.5 mph 9.3 mph 66% 0 in 0.00 W/m2 unknown
23:39 44.6 °F 33.8 °F 30.6 in ENE 7.5 mph 10.6 mph 66% 0 in 0.00 W/m2 unknown
23:44 44.6 °F 33.8 °F 30.6 in ENE 8.1 mph 10.6 mph 66% 0 in 0.00 W/m2 unknown
23:49 44.6 °F 33.8 °F 30.6 in ENE 8.7 mph 10.6 mph 65% 0 in 0.00 W/m2 unknown
23:54 44.6 °F 33.8 °F 30.6 in ENE 8.7 mph 11.8 mph 65% 0 in 0.00 W/m2 unknown
23:59 44.6 °F 33.8 °F 30.6 in ENE 8.7 mph 11.8 mph 64% 0 in 0.00 W/m2 unknown
Stazione Meteorologica MeteoMincio Rivalta s/M (MN)
Con i complimenti di Weather Underground - 4 mb



GLOSSARIO METEOROLOGICO
Humidex
è un indice di calore introdotto originariamente in Canada, ove è, ancora oggi largamente impiegato. è utilizzato per descrivere il disagio fisiologico che può verificarsi nelle giornate umide e calde. Tale indice è sensibile in un intervallo di temperatura compreso tra 20°C e 55°C. Al di fuori di tale intervallo, anche al variare dell'umidità relativa, l'indice individua sempre le classi estreme.
Share

Non seguire questo link o sarai bannato dal sito!